Página principal
METAR-TAF:

METAR-TAF

Aeroportos :

Wasilla, Alasca, Estados Unidos

latitude: 61-34-19N, longitude: 149-32-26W, altura: 106 m

Observação actual do tempo

O boletim foi feito há 19 minutos, às 18:56 UTC
Vento 3 kt com direcção variável
Temperatura 13°C
Humidade 72%
Pressão 1016 hPa
Visibilidade: 16.1 km
Poucas nuvensa uma altura de 2200 ft

METAR: PAWS 201856Z AUTO VRB03KT 10SM FEW022 13/08 A3001 RMK AO2 SLP166 T01330083

Hora: 11:15 (19:15 UTC)


TAF: em falta

Observações e previsões do tempo de mais de 4000 aeroportos (mensagens METAR e TAF).

As estações disponíveis são os pontos amarelos e vermelhos sobre o mapa.

Mova o rato sobre o mapa para ver o nome da estação.

Depois clique no ponto para visualizar as observações e previsões meteorológicas.

Para alterar o mapa : clique nos botões verdes com uma cruz preta para aumentar o zoom; no botão verde com uma pitada de zoom; ou nas setas verdes para mapas adjacentes.


METAR-TAF: